This is the latest recevied weather packets stored in our database for station/object DB7GV-8. If no packets are shown the sender has not sent any weather packets the latest 10 day(s).
| Time | Temp. | Humidity | Pressure | Rain* | Wind** | Luminosity | Snow |
|---|---|---|---|---|---|---|---|
| 1778052649 | 22.78° C | 48% | 1008.4 hPa | - | - | - | - |
| 1778050837 | 21.67° C | 64% | 1008.6 hPa | - | - | - | - |
| 1778049932 | 12.78° C | 87% | 1008.6 hPa | - | - | - | - |
| 1778049027 | 10.56° C | 89% | 1008.5 hPa | - | - | - | - |
| 1778048121 | 10.56° C | 89% | 1008.5 hPa | - | - | - | - |
| 1778047216 | 10° C | 89% | 1008.5 hPa | - | - | - | - |
| 1778046311 | 9.44° C | 90% | 1008.7 hPa | - | - | - | - |
| 1778044500 | 8.89° C | 90% | 1008.8 hPa | - | - | - | - |
| 1778043595 | 8.33° C | 91% | 1008.9 hPa | - | - | - | - |
| 1778042689 | 8.33° C | 91% | 1008.8 hPa | - | - | - | - |
| 1778041783 | 8.33° C | 91% | 1008.9 hPa | - | - | - | - |
| 1778040878 | 8.33° C | 91% | 1009 hPa | - | - | - | - |
| 1778039973 | 8.33° C | 91% | 1009.2 hPa | - | - | - | - |
| 1778039068 | 8.33° C | 91% | 1009.3 hPa | - | - | - | - |
| 1778038162 | 8.33° C | 91% | 1009.4 hPa | - | - | - | - |
| 1778037257 | 8.33° C | 90% | 1009.3 hPa | - | - | - | - |
| 1778036356 | 8.33° C | 90% | 1009.4 hPa | - | - | - | - |
| 1778035446 | 8.33° C | 90% | 1009.7 hPa | - | - | - | - |
| 1778034540 | 8.89° C | 90% | 1009.9 hPa | - | - | - | - |
| 1778033634 | 8.89° C | 90% | 1009.9 hPa | - | - | - | - |
| 1778032729 | 8.89° C | 90% | 1010 hPa | - | - | - | - |
| 1778031824 | 8.89° C | 90% | 1010.1 hPa | - | - | - | - |
| 1778030919 | 8.89° C | 90% | 1010.1 hPa | - | - | - | - |
| 1778030013 | 8.89° C | 90% | 1010.2 hPa | - | - | - | - |
| 1778029108 | 8.89° C | 90% | 1010.3 hPa | - | - | - | - |
* Rain since midnight (hover to see other rain measurements)
** Current wind speed in m/s (hover to see current wind gust speed)